createdAt,value
2022-12-14T00:00:00.026Z,22.60
2022-12-14T00:03:03.212Z,23.93
2022-12-14T00:06:15.223Z,21.93
2022-12-14T00:09:18.344Z,23.63
2022-12-14T00:12:21.428Z,23.43
2022-12-14T00:15:25.962Z,24.07
2022-12-14T00:18:29.395Z,24.63
2022-12-14T00:21:32.842Z,24.57
2022-12-14T00:24:36.038Z,23.87
2022-12-14T00:27:44.513Z,23.60
2022-12-14T00:30:51.822Z,22.87
2022-12-14T00:33:58.589Z,23.33
2022-12-14T00:37:01.599Z,22.33
2022-12-14T00:40:07.359Z,23.03
2022-12-14T00:43:12.846Z,22.37
2022-12-14T00:46:17.300Z,21.63
2022-12-14T00:49:20.374Z,23.23
2022-12-14T00:52:23.358Z,21.90
2022-12-14T00:55:26.729Z,22.40
2022-12-14T00:58:30.442Z,21.57
2022-12-14T01:01:36.086Z,21.60
2022-12-14T01:04:39.272Z,22.63
2022-12-14T01:07:42.314Z,23.07
2022-12-14T01:10:45.573Z,21.70
2022-12-14T01:13:49.559Z,21.80
2022-12-14T01:16:54.206Z,20.90
2022-12-14T01:19:57.896Z,21.57
2022-12-14T01:23:00.956Z,20.77
2022-12-14T01:26:03.926Z,22.23
2022-12-14T01:29:10.275Z,20.90
2022-12-14T01:32:14.642Z,22.20
2022-12-14T01:35:17.848Z,23.77
2022-12-14T01:38:20.966Z,21.17
2022-12-14T01:41:28.924Z,22.67
2022-12-14T01:45:06.416Z,20.60
2022-12-14T01:48:14.249Z,22.67
2022-12-14T01:51:17.256Z,21.23
2022-12-14T01:54:22.154Z,22.13
2022-12-14T01:57:34.202Z,22.33
2022-12-14T02:00:38.212Z,21.67
2022-12-14T02:03:47.281Z,19.87
2022-12-14T02:06:57.858Z,22.53
2022-12-14T02:10:07.681Z,21.60
2022-12-14T02:13:17.516Z,22.00
2022-12-14T02:16:20.703Z,22.50
2022-12-14T02:19:25.062Z,23.23
2022-12-14T02:23:30.382Z,22.67
2022-12-14T02:27:05.599Z,22.73
2022-12-14T02:30:13.587Z,21.83
2022-12-14T02:33:33.480Z,22.80
2022-12-14T02:36:46.035Z,22.43
2022-12-14T02:40:05.344Z,22.50
2022-12-14T02:43:19.898Z,23.17
2022-12-14T02:46:32.190Z,23.20
2022-12-14T02:49:57.813Z,23.57
2022-12-14T02:53:21.930Z,21.73
2022-12-14T02:56:30.843Z,21.23
2022-12-14T02:59:34.973Z,22.60
2022-12-14T03:02:43.422Z,21.93
2022-12-14T03:05:57.333Z,21.40
2022-12-14T03:09:04.836Z,21.23
2022-12-14T03:12:11.871Z,21.57
2022-12-14T03:15:19.621Z,22.00
2022-12-14T03:18:28.482Z,23.97
2022-12-14T03:21:38.815Z,21.53
2022-12-14T03:24:46.410Z,22.40
2022-12-14T03:27:54.932Z,22.40
2022-12-14T03:31:03.100Z,24.20
2022-12-14T03:34:14.010Z,21.93
2022-12-14T03:37:21.646Z,21.23
2022-12-14T03:40:33.776Z,21.63
2022-12-14T03:43:49.653Z,23.83
2022-12-14T03:47:03.573Z,20.77
2022-12-14T03:50:14.484Z,22.13
2022-12-14T03:53:22.516Z,21.67
2022-12-14T03:56:39.133Z,23.27
2022-12-14T03:59:49.598Z,21.17
2022-12-14T04:03:01.355Z,21.93
2022-12-14T04:06:10.458Z,22.10
2022-12-14T04:09:30.553Z,21.87
2022-12-14T04:12:54.621Z,22.13
2022-12-14T04:16:18.458Z,23.97
2022-12-14T04:19:31.968Z,23.13
2022-12-14T04:22:43.629Z,20.83
2022-12-14T04:26:05.642Z,21.70
2022-12-14T04:29:31.038Z,23.20
2022-12-14T04:32:38.124Z,22.57
2022-12-14T04:35:43.297Z,21.37
2022-12-14T04:38:51.916Z,21.10
2022-12-14T04:42:01.196Z,21.67
2022-12-14T04:45:09.467Z,21.57
2022-12-14T04:48:22.424Z,21.47
2022-12-14T04:51:32.603Z,21.77
2022-12-14T04:54:43.668Z,20.63
2022-12-14T04:57:50.483Z,20.33
2022-12-14T05:01:12.994Z,21.27
2022-12-14T05:04:30.303Z,21.73
2022-12-14T05:07:48.718Z,21.17
2022-12-14T05:11:22.131Z,21.83
2022-12-14T05:14:35.301Z,21.47
2022-12-14T05:17:39.827Z,20.87
2022-12-14T05:20:43.004Z,19.90
2022-12-14T05:23:45.933Z,20.70
2022-12-14T05:26:50.242Z,20.77
2022-12-14T05:29:53.571Z,21.03
2022-12-14T05:32:56.641Z,22.07
2022-12-14T05:35:59.635Z,20.17
2022-12-14T05:39:03.007Z,21.53
2022-12-14T05:42:07.532Z,19.73
2022-12-14T05:45:12.540Z,20.23
2022-12-14T05:48:15.648Z,20.13
2022-12-14T05:51:23.043Z,19.67
2022-12-14T05:54:26.106Z,20.03
2022-12-14T05:57:31.581Z,21.03
2022-12-14T06:00:34.670Z,20.87
2022-12-14T06:03:40.226Z,20.87
2022-12-14T06:06:43.885Z,22.23
2022-12-14T06:09:47.178Z,20.40
2022-12-14T06:12:53.973Z,22.37
2022-12-14T06:15:57.011Z,22.73
2022-12-14T06:19:02.196Z,21.40
2022-12-14T06:22:05.274Z,23.13
2022-12-14T06:25:10.046Z,23.00
2022-12-14T06:28:16.571Z,21.70
2022-12-14T06:31:22.947Z,22.40
2022-12-14T06:34:28.611Z,31.70
2022-12-14T06:37:34.877Z,29.17
2022-12-14T06:40:38.479Z,37.07
2022-12-14T06:43:46.019Z,24.53
2022-12-14T06:46:52.572Z,27.60
2022-12-14T06:49:55.638Z,26.50
2022-12-14T06:52:58.922Z,26.03
2022-12-14T06:56:10.524Z,21.73
2022-12-14T06:59:16.473Z,22.23
2022-12-14T07:02:20.115Z,19.90
2022-12-14T07:05:23.204Z,18.90
2022-12-14T07:08:26.746Z,20.67
2022-12-14T07:11:31.879Z,20.37
2022-12-14T07:14:36.722Z,21.13
2022-12-14T07:17:39.966Z,22.37
2022-12-14T07:20:46.940Z,21.83
2022-12-14T07:23:52.785Z,23.53
2022-12-14T07:26:56.415Z,21.23
2022-12-14T07:30:00.754Z,18.87
2022-12-14T07:33:03.859Z,20.90
2022-12-14T07:36:09.282Z,21.13
2022-12-14T07:39:15.250Z,24.00
2022-12-14T07:42:18.220Z,19.30
2022-12-14T07:45:25.759Z,21.93
2022-12-14T07:48:38.283Z,22.00
2022-12-14T07:51:44.132Z,19.93
2022-12-14T07:54:47.416Z,21.13
2022-12-14T07:57:50.658Z,20.27
2022-12-14T08:00:56.617Z,20.77
2022-12-14T08:04:02.274Z,20.10
2022-12-14T08:07:05.323Z,20.53
2022-12-14T08:10:09.349Z,21.17
2022-12-14T08:13:12.637Z,19.47
2022-12-14T08:16:18.330Z,20.73
2022-12-14T08:19:22.245Z,21.50
2022-12-14T08:22:25.342Z,20.23
2022-12-14T08:25:28.371Z,21.73
2022-12-14T08:28:33.020Z,21.80
2022-12-14T08:31:37.431Z,21.27
2022-12-14T08:34:40.459Z,21.90
2022-12-14T08:37:47.464Z,21.83
2022-12-14T08:40:50.872Z,21.03
2022-12-14T08:43:56.543Z,21.67
2022-12-14T08:47:01.305Z,22.50
2022-12-14T08:50:05.679Z,21.10
2022-12-14T08:53:09.102Z,22.23
2022-12-14T08:56:17.462Z,22.00
2022-12-14T08:59:52.135Z,23.10
2022-12-14T09:02:46.268Z,20.43
2022-12-14T09:05:54.150Z,21.00
2022-12-14T09:08:59.386Z,22.27
2022-12-14T09:12:06.401Z,22.87
2022-12-14T09:15:13.320Z,21.73
2022-12-14T09:18:18.693Z,21.97
2022-12-14T09:21:22.998Z,22.10
2022-12-14T09:24:26.124Z,22.13
2022-12-14T09:27:29.219Z,22.33
2022-12-14T09:30:32.856Z,21.93
2022-12-14T09:33:37.787Z,21.53
2022-12-14T09:36:40.853Z,21.53
2022-12-14T09:39:44.122Z,20.20
2022-12-14T09:42:57.877Z,21.57
2022-12-14T09:46:14.348Z,20.93
2022-12-14T09:49:28.953Z,20.83
2022-12-14T09:52:41.000Z,21.80
2022-12-14T09:55:48.036Z,21.37
2022-12-14T09:58:56.482Z,22.03
2022-12-14T10:02:30.549Z,19.63
2022-12-14T10:06:03.504Z,22.07
2022-12-14T10:09:16.011Z,20.23
2022-12-14T10:12:36.779Z,21.37
2022-12-14T10:15:51.619Z,22.43
2022-12-14T10:19:10.974Z,21.63
2022-12-14T10:22:20.348Z,20.07
2022-12-14T10:25:26.693Z,20.73
2022-12-14T10:28:45.401Z,20.60
2022-12-14T10:31:58.582Z,22.57
2022-12-14T10:35:14.217Z,21.27
2022-12-14T10:38:27.507Z,20.97
2022-12-14T10:41:39.530Z,21.67
2022-12-14T10:45:23.309Z,21.40
2022-12-14T10:48:39.798Z,20.50
2022-12-14T10:51:49.787Z,20.33
2022-12-14T10:54:59.279Z,20.77
2022-12-14T10:58:02.410Z,23.33
2022-12-14T11:01:05.639Z,19.97
2022-12-14T11:04:22.696Z,20.10
2022-12-14T11:07:29.731Z,20.17
2022-12-14T11:10:39.545Z,20.63
2022-12-14T11:13:53.417Z,20.87
2022-12-14T11:16:56.631Z,22.40
2022-12-14T11:20:19.550Z,23.87
2022-12-14T11:23:26.919Z,23.10
2022-12-14T11:26:36.467Z,21.57
2022-12-14T11:29:41.264Z,21.37
2022-12-14T11:32:48.536Z,21.87
2022-12-14T11:35:53.057Z,20.13
2022-12-14T11:38:57.373Z,20.43
2022-12-14T11:42:04.650Z,20.40
2022-12-14T11:45:31.385Z,18.93
2022-12-14T11:48:38.451Z,21.03
2022-12-14T11:52:05.687Z,18.90
2022-12-14T11:55:15.877Z,17.73
2022-12-14T11:58:24.968Z,18.27
2022-12-14T12:01:28.254Z,18.97
2022-12-14T12:04:34.731Z,19.03
2022-12-14T12:07:43.620Z,17.70
2022-12-14T12:10:51.477Z,16.83
2022-12-14T12:14:02.571Z,19.67
2022-12-14T12:17:20.520Z,18.03
2022-12-14T12:20:31.093Z,23.23
2022-12-14T12:23:39.502Z,24.80
2022-12-14T12:26:49.846Z,27.00
2022-12-14T12:30:11.143Z,22.63
2022-12-14T12:33:33.429Z,22.17
2022-12-14T12:36:37.686Z,26.37
2022-12-14T12:39:44.572Z,23.87
2022-12-14T12:42:55.463Z,18.67
2022-12-14T12:46:10.256Z,21.13
2022-12-14T12:49:23.123Z,20.47
2022-12-14T12:52:55.382Z,19.80
2022-12-14T12:56:09.666Z,19.33
2022-12-14T13:00:25.147Z,19.67
2022-12-14T13:03:37.358Z,22.33
2022-12-14T13:06:46.690Z,20.60
2022-12-14T13:09:54.425Z,18.07
2022-12-14T13:13:04.291Z,20.10
2022-12-14T13:16:16.419Z,18.63
2022-12-14T13:19:50.559Z,21.17
2022-12-14T13:22:57.325Z,18.97
2022-12-14T13:26:56.190Z,18.57
2022-12-14T13:30:18.762Z,17.47
2022-12-14T13:33:52.132Z,18.13
2022-12-14T13:37:37.958Z,18.73
2022-12-14T13:41:05.961Z,19.50
2022-12-14T13:44:38.645Z,18.67
2022-12-14T13:47:52.312Z,20.10
2022-12-14T13:51:02.008Z,20.23
2022-12-14T13:54:20.526Z,19.00
2022-12-14T13:57:25.668Z,20.23
2022-12-14T14:00:56.968Z,20.27
2022-12-14T14:04:23.249Z,18.97
2022-12-14T14:07:53.638Z,20.57
2022-12-14T14:11:35.358Z,21.73
2022-12-14T14:14:39.048Z,22.57
2022-12-14T14:17:45.669Z,20.57
2022-12-14T14:20:57.005Z,24.10
2022-12-14T14:24:20.328Z,21.03
2022-12-14T14:27:28.703Z,19.37
2022-12-14T14:30:37.248Z,26.07
2022-12-14T14:34:03.873Z,23.17
2022-12-14T14:37:30.513Z,20.10
2022-12-14T14:41:14.215Z,24.00
2022-12-14T14:44:18.573Z,20.40
2022-12-14T14:47:27.824Z,23.27
2022-12-14T14:50:36.728Z,21.90
2022-12-14T14:53:41.233Z,21.90
2022-12-14T14:56:44.570Z,23.30
2022-12-14T15:00:00.558Z,23.37
2022-12-14T15:03:04.660Z,24.53
2022-12-14T15:06:15.626Z,25.73
2022-12-14T15:09:27.336Z,23.43
2022-12-14T15:12:40.050Z,23.27
2022-12-14T15:15:47.417Z,24.53
2022-12-14T15:18:50.720Z,22.53
2022-12-14T15:21:57.595Z,27.07
2022-12-14T15:25:02.605Z,22.87
2022-12-14T15:28:08.408Z,60.77
2022-12-14T15:31:13.116Z,28.13
2022-12-14T15:34:19.078Z,23.57
2022-12-14T15:37:29.482Z,25.97
2022-12-14T15:40:36.524Z,26.23
2022-12-14T15:43:46.075Z,27.43
2022-12-14T15:46:55.122Z,29.50
2022-12-14T15:50:23.822Z,26.80
2022-12-14T15:53:32.869Z,27.10
2022-12-14T15:56:41.092Z,26.23
2022-12-14T15:59:45.598Z,26.53
2022-12-14T16:02:54.134Z,27.53
2022-12-14T16:05:58.519Z,25.70
2022-12-14T16:09:07.133Z,26.67
2022-12-14T16:12:18.476Z,26.37
2022-12-14T16:15:25.783Z,23.57
2022-12-14T16:18:30.394Z,26.53
2022-12-14T16:21:36.287Z,25.07
2022-12-14T16:24:54.099Z,27.20
2022-12-14T16:28:23.134Z,25.70
2022-12-14T16:31:27.497Z,27.13
2022-12-14T16:34:33.382Z,26.67
2022-12-14T16:37:36.571Z,25.90
2022-12-14T16:40:43.053Z,28.30
2022-12-14T16:43:56.522Z,26.33
2022-12-14T16:47:29.419Z,26.03
2022-12-14T16:54:01.864Z,27.10
2022-12-14T16:57:18.896Z,28.63
2022-12-14T17:00:25.214Z,30.07
2022-12-14T17:03:31.845Z,29.07
2022-12-14T17:06:45.579Z,30.23
2022-12-14T17:09:48.576Z,29.93
2022-12-14T17:12:54.580Z,30.00
2022-12-14T17:16:01.524Z,31.80
2022-12-14T17:19:06.077Z,32.13
2022-12-14T17:22:18.585Z,31.30
2022-12-14T17:25:22.222Z,32.57
2022-12-14T17:28:29.177Z,32.97
2022-12-14T17:31:32.424Z,31.10
2022-12-14T17:34:46.296Z,34.37
2022-12-14T17:37:52.173Z,34.80
2022-12-14T17:40:56.054Z,33.27
2022-12-14T17:43:59.848Z,34.57
2022-12-14T17:47:03.011Z,34.67
2022-12-14T17:50:09.544Z,35.27
2022-12-14T17:53:15.212Z,36.17
2022-12-14T17:56:19.156Z,34.40
2022-12-14T17:59:23.863Z,37.07
2022-12-14T18:02:32.986Z,35.27
2022-12-14T18:05:37.043Z,34.57
2022-12-14T18:08:41.861Z,36.53
2022-12-14T18:12:22.096Z,35.23
2022-12-14T18:15:24.465Z,35.43
2022-12-14T18:18:29.646Z,35.83
2022-12-14T18:21:38.698Z,36.73
2022-12-14T18:24:43.029Z,35.73
2022-12-14T18:27:46.067Z,33.83
2022-12-14T18:30:55.305Z,35.10
2022-12-14T18:33:58.596Z,35.53
2022-12-14T18:37:02.805Z,35.50
2022-12-14T18:40:13.395Z,35.50
2022-12-14T18:43:20.255Z,36.77
2022-12-14T18:46:23.573Z,35.47
2022-12-14T18:49:27.730Z,36.27
2022-12-14T18:52:30.687Z,35.83
2022-12-14T18:55:35.482Z,40.37
2022-12-14T18:58:41.786Z,38.27
2022-12-14T19:01:44.835Z,37.60
2022-12-14T19:04:48.962Z,38.03
2022-12-14T19:07:52.338Z,36.73
2022-12-14T19:10:56.851Z,39.43
2022-12-14T19:14:01.013Z,39.40
2022-12-14T19:17:05.097Z,39.10
2022-12-14T19:20:11.283Z,38.17
2022-12-14T19:23:16.679Z,38.77
2022-12-14T19:26:21.160Z,38.40
2022-12-14T19:29:24.261Z,41.73
2022-12-14T19:32:27.462Z,46.93
2022-12-14T19:35:31.787Z,44.90
2022-12-14T19:38:35.721Z,49.67
2022-12-14T19:41:40.087Z,50.20
2022-12-14T19:44:43.059Z,44.77
2022-12-14T19:47:46.515Z,44.93
2022-12-14T19:50:51.636Z,40.93
2022-12-14T19:53:56.057Z,41.03
2022-12-14T19:57:00.466Z,43.03
2022-12-14T20:00:03.706Z,42.50
2022-12-14T20:03:13.324Z,44.63
2022-12-14T20:06:17.276Z,44.40
2022-12-14T20:09:20.354Z,41.60
2022-12-14T20:12:24.768Z,41.63
2022-12-14T20:15:27.739Z,41.13
2022-12-14T20:18:32.608Z,39.27
2022-12-14T20:21:38.768Z,39.00
2022-12-14T20:24:42.390Z,38.00
2022-12-14T20:27:49.709Z,36.63
2022-12-14T20:30:53.590Z,36.30
2022-12-14T20:33:56.631Z,39.07
2022-12-14T20:37:00.340Z,37.77
2022-12-14T20:40:04.196Z,39.77
2022-12-14T20:43:08.561Z,38.17
2022-12-14T20:46:27.298Z,42.67
2022-12-14T20:49:34.303Z,39.43
2022-12-14T20:52:40.509Z,40.63
2022-12-14T20:55:43.793Z,40.83
2022-12-14T20:58:49.442Z,40.50
2022-12-14T21:01:56.229Z,41.43
2022-12-14T21:04:59.968Z,41.33
2022-12-14T21:08:17.858Z,39.83
2022-12-14T21:11:38.814Z,39.40
2022-12-14T21:14:44.734Z,38.83
2022-12-14T21:17:50.640Z,38.77
2022-12-14T21:20:53.739Z,37.83
2022-12-14T21:23:58.173Z,39.30
2022-12-14T21:27:01.375Z,37.40
2022-12-14T21:30:09.038Z,38.73
2022-12-14T21:33:12.028Z,39.23
2022-12-14T21:36:15.880Z,40.07
2022-12-14T21:39:20.670Z,40.23
2022-12-14T21:42:24.507Z,40.60
2022-12-14T21:45:28.914Z,40.43
2022-12-14T21:48:32.210Z,40.97
2022-12-14T21:51:35.422Z,40.20
2022-12-14T21:54:40.233Z,38.50
2022-12-14T21:58:00.682Z,40.53
2022-12-14T22:01:09.088Z,39.17
2022-12-14T22:04:12.257Z,37.07
2022-12-14T22:07:16.504Z,41.00
2022-12-14T22:10:25.140Z,40.77
2022-12-14T22:13:28.830Z,38.07
2022-12-14T22:16:34.915Z,38.23
2022-12-14T22:19:38.144Z,39.63
2022-12-14T22:22:44.827Z,37.53
2022-12-14T22:25:50.736Z,40.33
2022-12-14T22:28:54.785Z,40.40
2022-12-14T22:31:59.210Z,38.50
2022-12-14T22:35:02.506Z,38.60
2022-12-14T22:38:06.276Z,39.67
2022-12-14T22:41:15.288Z,41.27
2022-12-14T22:44:18.257Z,42.33
2022-12-14T22:47:22.803Z,40.97
2022-12-14T22:50:25.825Z,41.33
2022-12-14T22:53:31.455Z,41.13
2022-12-14T22:56:39.290Z,40.73
2022-12-14T22:59:49.693Z,38.87
2022-12-14T23:02:55.448Z,37.00
2022-12-14T23:06:02.305Z,40.97
2022-12-14T23:09:23.791Z,40.03
2022-12-14T23:12:44.510Z,41.50
2022-12-14T23:16:05.228Z,40.50
2022-12-14T23:19:27.249Z,40.27
2022-12-14T23:22:51.415Z,38.90
2022-12-14T23:26:12.381Z,40.03
2022-12-14T23:29:35.236Z,40.67
2022-12-14T23:32:55.958Z,39.30
2022-12-14T23:36:20.174Z,40.50
2022-12-14T23:39:43.222Z,41.37
2022-12-14T23:43:06.307Z,39.47
2022-12-14T23:46:27.095Z,41.67
2022-12-14T23:49:47.898Z,43.23
2022-12-14T23:53:09.998Z,43.40
2022-12-14T23:56:32.898Z,40.27
2022-12-14T23:59:53.639Z,40.60
